sensor_id;sensor_type;location;lat;lon;timestamp;P1;durP1;ratioP1;P2;durP2;ratioP2
39930;SDS011;26635;-35.248;149.138;2023-05-27T00:00:06;2.30;;;0.90;;
39930;SDS011;26635;-35.248;149.138;2023-05-27T00:02:44;1.50;;;0.80;;
39930;SDS011;26635;-35.248;149.138;2023-05-27T00:05:16;3.60;;;1.10;;
39930;SDS011;26635;-35.248;149.138;2023-05-27T00:07:49;1.60;;;0.80;;
39930;SDS011;26635;-35.248;149.138;2023-05-27T00:10:21;1.80;;;0.93;;
39930;SDS011;26635;-35.248;149.138;2023-05-27T00:12:52;1.93;;;1.30;;
39930;SDS011;26635;-35.248;149.138;2023-05-27T00:15:24;1.23;;;0.63;;
39930;SDS011;26635;-35.248;149.138;2023-05-27T00:17:58;1.65;;;0.90;;
39930;SDS011;26635;-35.248;149.138;2023-05-27T00:20:31;2.77;;;1.03;;
39930;SDS011;26635;-35.248;149.138;2023-05-27T00:23:03;3.58;;;1.38;;
39930;SDS011;26635;-35.248;149.138;2023-05-27T00:25:36;1.95;;;1.10;;
39930;SDS011;26635;-35.248;149.138;2023-05-27T00:28:10;2.63;;;1.30;;
39930;SDS011;26635;-35.248;149.138;2023-05-27T00:30:41;3.08;;;1.42;;
39930;SDS011;26635;-35.248;149.138;2023-05-27T00:33:13;3.97;;;1.40;;
39930;SDS011;26635;-35.248;149.138;2023-05-27T00:35:45;3.15;;;1.77;;
39930;SDS011;26635;-35.248;149.138;2023-05-27T00:38:19;3.53;;;1.70;;
39930;SDS011;26635;-35.248;149.138;2023-05-27T00:40:53;5.83;;;1.83;;
39930;SDS011;26635;-35.248;149.138;2023-05-27T00:43:25;2.70;;;1.50;;
39930;SDS011;26635;-35.248;149.138;2023-05-27T00:45:57;3.42;;;1.60;;
39930;SDS011;26635;-35.248;149.138;2023-05-27T00:48:30;2.38;;;1.17;;
39930;SDS011;26635;-35.248;149.138;2023-05-27T00:51:02;3.00;;;1.75;;
39930;SDS011;26635;-35.248;149.138;2023-05-27T00:53:41;2.28;;;1.50;;
39930;SDS011;26635;-35.248;149.138;2023-05-27T00:56:13;2.47;;;1.67;;
39930;SDS011;26635;-35.248;149.138;2023-05-27T00:58:46;2.00;;;1.33;;
39930;SDS011;26635;-35.248;149.138;2023-05-27T01:01:19;2.15;;;1.23;;
39930;SDS011;26635;-35.248;149.138;2023-05-27T01:03:51;3.47;;;1.40;;
39930;SDS011;26635;-35.248;149.138;2023-05-27T01:09:24;1.90;;;1.20;;
39930;SDS011;26635;-35.248;149.138;2023-05-27T01:14:53;2.72;;;1.38;;
39930;SDS011;26635;-35.248;149.138;2023-05-27T01:17:29;3.10;;;1.30;;
39930;SDS011;26635;-35.248;149.138;2023-05-27T01:20:12;2.22;;;1.20;;
39930;SDS011;26635;-35.248;149.138;2023-05-27T01:22:44;3.15;;;1.60;;
39930;SDS011;26635;-35.248;149.138;2023-05-27T01:25:23;2.42;;;1.38;;
39930;SDS011;26635;-35.248;149.138;2023-05-27T01:27:55;4.07;;;1.40;;
39930;SDS011;26635;-35.248;149.138;2023-05-27T01:30:26;2.78;;;1.10;;
39930;SDS011;26635;-35.248;149.138;2023-05-27T01:33:08;2.20;;;1.67;;
39930;SDS011;26635;-35.248;149.138;2023-05-27T01:35:44;5.18;;;1.52;;
39930;SDS011;26635;-35.248;149.138;2023-05-27T01:38:24;2.35;;;0.93;;
39930;SDS011;26635;-35.248;149.138;2023-05-27T01:40:58;2.17;;;1.35;;
39930;SDS011;26635;-35.248;149.138;2023-05-27T01:43:31;2.15;;;1.50;;
39930;SDS011;26635;-35.248;149.138;2023-05-27T01:46:03;2.60;;;1.67;;
39930;SDS011;26635;-35.248;149.138;2023-05-27T01:48:36;4.10;;;1.20;;
39930;SDS011;26635;-35.248;149.138;2023-05-27T01:51:07;3.92;;;2.05;;
39930;SDS011;26635;-35.248;149.138;2023-05-27T01:53:39;3.60;;;1.75;;
39930;SDS011;26635;-35.248;149.138;2023-05-27T01:56:10;4.40;;;1.25;;
39930;SDS011;26635;-35.248;149.138;2023-05-27T01:58:41;3.67;;;1.10;;
39930;SDS011;26635;-35.248;149.138;2023-05-27T02:01:12;2.38;;;0.90;;
39930;SDS011;26635;-35.248;149.138;2023-05-27T02:03:43;2.35;;;0.50;;
39930;SDS011;26635;-35.248;149.138;2023-05-27T02:06:14;0.80;;;0.32;;
39930;SDS011;26635;-35.248;149.138;2023-05-27T02:08:45;0.73;;;0.30;;
39930;SDS011;26635;-35.248;149.138;2023-05-27T02:11:16;0.90;;;0.30;;
39930;SDS011;26635;-35.248;149.138;2023-05-27T02:13:47;0.93;;;0.22;;
39930;SDS011;26635;-35.248;149.138;2023-05-27T02:16:20;1.38;;;0.57;;
39930;SDS011;26635;-35.248;149.138;2023-05-27T02:18:51;1.67;;;1.17;;
39930;SDS011;26635;-35.248;149.138;2023-05-27T02:21:22;1.85;;;0.85;;
39930;SDS011;26635;-35.248;149.138;2023-05-27T02:23:52;1.10;;;0.50;;
39930;SDS011;26635;-35.248;149.138;2023-05-27T02:26:24;0.85;;;0.40;;
39930;SDS011;26635;-35.248;149.138;2023-05-27T02:28:55;0.80;;;0.30;;
39930;SDS011;26635;-35.248;149.138;2023-05-27T02:31:26;0.90;;;0.50;;
39930;SDS011;26635;-35.248;149.138;2023-05-27T02:34:00;0.65;;;0.30;;
39930;SDS011;26635;-35.248;149.138;2023-05-27T02:36:31;0.73;;;0.40;;
39930;SDS011;26635;-35.248;149.138;2023-05-27T02:39:04;2.30;;;0.47;;
39930;SDS011;26635;-35.248;149.138;2023-05-27T02:41:36;0.90;;;0.35;;
39930;SDS011;26635;-35.248;149.138;2023-05-27T02:44:07;1.10;;;0.10;;
39930;SDS011;26635;-35.248;149.138;2023-05-27T02:46:41;1.25;;;0.20;;
39930;SDS011;26635;-35.248;149.138;2023-05-27T02:49:12;0.52;;;0.30;;
39930;SDS011;26635;-35.248;149.138;2023-05-27T02:51:44;0.45;;;0.30;;
39930;SDS011;26635;-35.248;149.138;2023-05-27T02:54:18;1.08;;;0.73;;
39930;SDS011;26635;-35.248;149.138;2023-05-27T02:56:49;0.47;;;0.13;;
39930;SDS011;26635;-35.248;149.138;2023-05-27T02:59:20;0.28;;;0.10;;
39930;SDS011;26635;-35.248;149.138;2023-05-27T03:01:52;0.40;;;0.10;;
39930;SDS011;26635;-35.248;149.138;2023-05-27T03:04:24;1.65;;;0.30;;
39930;SDS011;26635;-35.248;149.138;2023-05-27T03:06:54;1.10;;;0.10;;
39930;SDS011;26635;-35.248;149.138;2023-05-27T03:09:25;0.82;;;0.30;;
39930;SDS011;26635;-35.248;149.138;2023-05-27T03:11:56;0.20;;;0.20;;
39930;SDS011;26635;-35.248;149.138;2023-05-27T03:14:30;0.65;;;0.20;;
39930;SDS011;26635;-35.248;149.138;2023-05-27T03:17:02;1.98;;;0.20;;
39930;SDS011;26635;-35.248;149.138;2023-05-27T03:19:33;0.70;;;0.30;;
39930;SDS011;26635;-35.248;149.138;2023-05-27T03:22:06;0.40;;;0.20;;
39930;SDS011;26635;-35.248;149.138;2023-05-27T03:24:39;0.35;;;0.20;;
39930;SDS011;26635;-35.248;149.138;2023-05-27T03:27:10;0.60;;;0.20;;
39930;SDS011;26635;-35.248;149.138;2023-05-27T03:29:43;0.70;;;0.20;;
39930;SDS011;26635;-35.248;149.138;2023-05-27T03:32:14;1.00;;;0.20;;
39930;SDS011;26635;-35.248;149.138;2023-05-27T03:34:45;0.98;;;0.32;;
39930;SDS011;26635;-35.248;149.138;2023-05-27T03:37:17;1.52;;;0.20;;
39930;SDS011;26635;-35.248;149.138;2023-05-27T03:39:48;0.40;;;0.10;;
39930;SDS011;26635;-35.248;149.138;2023-05-27T03:42:19;0.55;;;0.17;;
39930;SDS011;26635;-35.248;149.138;2023-05-27T03:44:50;0.35;;;0.10;;
39930;SDS011;26635;-35.248;149.138;2023-05-27T03:47:22;1.08;;;0.03;;
39930;SDS011;26635;-35.248;149.138;2023-05-27T03:49:53;0.88;;;0.20;;
39930;SDS011;26635;-35.248;149.138;2023-05-27T03:52:28;0.52;;;0.10;;
39930;SDS011;26635;-35.248;149.138;2023-05-27T03:54:59;1.00;;;0.63;;
39930;SDS011;26635;-35.248;149.138;2023-05-27T03:57:30;0.65;;;0.40;;
39930;SDS011;26635;-35.248;149.138;2023-05-27T04:00:01;0.22;;;0.00;;
39930;SDS011;26635;-35.248;149.138;2023-05-27T04:02:36;0.70;;;0.30;;
39930;SDS011;26635;-35.248;149.138;2023-05-27T04:05:09;0.30;;;0.20;;
39930;SDS011;26635;-35.248;149.138;2023-05-27T04:07:41;2.67;;;0.22;;
39930;SDS011;26635;-35.248;149.138;2023-05-27T04:10:12;0.65;;;0.10;;
39930;SDS011;26635;-35.248;149.138;2023-05-27T04:12:44;0.10;;;0.10;;
39930;SDS011;26635;-35.248;149.138;2023-05-27T04:15:15;0.28;;;0.00;;
39930;SDS011;26635;-35.248;149.138;2023-05-27T04:17:46;0.55;;;0.10;;
39930;SDS011;26635;-35.248;149.138;2023-05-27T04:20:17;0.10;;;0.03;;
39930;SDS011;26635;-35.248;149.138;2023-05-27T04:22:50;1.02;;;0.00;;
39930;SDS011;26635;-35.248;149.138;2023-05-27T04:25:22;0.10;;;0.10;;
39930;SDS011;26635;-35.248;149.138;2023-05-27T04:27:54;0.63;;;0.50;;
39930;SDS011;26635;-35.248;149.138;2023-05-27T04:30:26;0.50;;;0.10;;
39930;SDS011;26635;-35.248;149.138;2023-05-27T04:32:59;0.80;;;0.68;;
39930;SDS011;26635;-35.248;149.138;2023-05-27T04:35:30;0.10;;;0.10;;
39930;SDS011;26635;-35.248;149.138;2023-05-27T04:38:01;0.30;;;0.10;;
39930;SDS011;26635;-35.248;149.138;2023-05-27T04:40:33;0.47;;;0.10;;
39930;SDS011;26635;-35.248;149.138;2023-05-27T04:43:04;0.08;;;0.05;;
39930;SDS011;26635;-35.248;149.138;2023-05-27T04:45:35;0.45;;;0.20;;
39930;SDS011;26635;-35.248;149.138;2023-05-27T04:48:06;0.50;;;0.28;;
39930;SDS011;26635;-35.248;149.138;2023-05-27T04:50:39;0.00;;;0.00;;
39930;SDS011;26635;-35.248;149.138;2023-05-27T04:53:12;0.47;;;0.20;;
39930;SDS011;26635;-35.248;149.138;2023-05-27T04:55:47;0.00;;;0.00;;
39930;SDS011;26635;-35.248;149.138;2023-05-27T04:58:21;0.10;;;0.00;;
39930;SDS011;26635;-35.248;149.138;2023-05-27T05:00:52;0.60;;;0.10;;
39930;SDS011;26635;-35.248;149.138;2023-05-27T05:03:26;0.20;;;0.10;;
39930;SDS011;26635;-35.248;149.138;2023-05-27T05:06:10;0.00;;;0.00;;
39930;SDS011;26635;-35.248;149.138;2023-05-27T05:08:41;0.60;;;0.10;;
39930;SDS011;26635;-35.248;149.138;2023-05-27T05:11:12;0.35;;;0.30;;
39930;SDS011;26635;-35.248;149.138;2023-05-27T05:13:43;0.35;;;0.10;;
39930;SDS011;26635;-35.248;149.138;2023-05-27T05:16:14;4.78;;;0.32;;
39930;SDS011;26635;-35.248;149.138;2023-05-27T05:18:50;0.75;;;0.10;;
39930;SDS011;26635;-35.248;149.138;2023-05-27T05:21:21;0.25;;;0.13;;
39930;SDS011;26635;-35.248;149.138;2023-05-27T05:23:53;0.32;;;0.10;;
39930;SDS011;26635;-35.248;149.138;2023-05-27T05:26:26;0.60;;;0.17;;
39930;SDS011;26635;-35.248;149.138;2023-05-27T05:28:58;0.20;;;0.08;;
39930;SDS011;26635;-35.248;149.138;2023-05-27T05:31:30;0.13;;;0.10;;
39930;SDS011;26635;-35.248;149.138;2023-05-27T05:34:02;0.50;;;0.20;;
39930;SDS011;26635;-35.248;149.138;2023-05-27T05:36:34;0.30;;;0.13;;
39930;SDS011;26635;-35.248;149.138;2023-05-27T05:39:06;0.10;;;0.10;;
39930;SDS011;26635;-35.248;149.138;2023-05-27T05:41:37;0.20;;;0.20;;
39930;SDS011;26635;-35.248;149.138;2023-05-27T05:44:09;1.35;;;0.17;;
39930;SDS011;26635;-35.248;149.138;2023-05-27T05:46:40;0.22;;;0.10;;
39930;SDS011;26635;-35.248;149.138;2023-05-27T05:49:11;0.68;;;0.20;;
39930;SDS011;26635;-35.248;149.138;2023-05-27T05:51:42;0.98;;;0.13;;
39930;SDS011;26635;-35.248;149.138;2023-05-27T05:54:14;0.75;;;0.10;;
39930;SDS011;26635;-35.248;149.138;2023-05-27T05:56:47;0.77;;;0.10;;
39930;SDS011;26635;-35.248;149.138;2023-05-27T05:59:19;0.20;;;0.10;;
39930;SDS011;26635;-35.248;149.138;2023-05-27T06:01:51;1.45;;;0.10;;
39930;SDS011;26635;-35.248;149.138;2023-05-27T06:04:23;0.52;;;0.10;;
39930;SDS011;26635;-35.248;149.138;2023-05-27T06:06:54;0.80;;;0.20;;
39930;SDS011;26635;-35.248;149.138;2023-05-27T06:09:27;0.25;;;0.10;;
39930;SDS011;26635;-35.248;149.138;2023-05-27T06:11:58;0.13;;;0.13;;
39930;SDS011;26635;-35.248;149.138;2023-05-27T06:14:29;0.43;;;0.10;;
39930;SDS011;26635;-35.248;149.138;2023-05-27T06:17:01;1.55;;;0.20;;
39930;SDS011;26635;-35.248;149.138;2023-05-27T06:19:33;0.65;;;0.20;;
39930;SDS011;26635;-35.248;149.138;2023-05-27T06:22:04;0.40;;;0.10;;
39930;SDS011;26635;-35.248;149.138;2023-05-27T06:24:35;0.15;;;0.10;;
39930;SDS011;26635;-35.248;149.138;2023-05-27T06:27:06;0.73;;;0.20;;
39930;SDS011;26635;-35.248;149.138;2023-05-27T06:29:37;1.25;;;0.28;;
39930;SDS011;26635;-35.248;149.138;2023-05-27T06:32:09;0.75;;;0.30;;
39930;SDS011;26635;-35.248;149.138;2023-05-27T06:34:42;0.32;;;0.10;;
39930;SDS011;26635;-35.248;149.138;2023-05-27T06:37:12;1.02;;;0.68;;
39930;SDS011;26635;-35.248;149.138;2023-05-27T06:39:43;1.45;;;0.35;;
39930;SDS011;26635;-35.248;149.138;2023-05-27T06:42:18;0.85;;;0.52;;
39930;SDS011;26635;-35.248;149.138;2023-05-27T06:44:49;3.72;;;1.00;;
39930;SDS011;26635;-35.248;149.138;2023-05-27T06:47:20;2.10;;;0.20;;
39930;SDS011;26635;-35.248;149.138;2023-05-27T06:49:51;0.63;;;0.25;;
39930;SDS011;26635;-35.248;149.138;2023-05-27T06:52:22;0.80;;;0.38;;
39930;SDS011;26635;-35.248;149.138;2023-05-27T06:54:53;1.73;;;0.75;;
39930;SDS011;26635;-35.248;149.138;2023-05-27T06:57:26;0.93;;;0.30;;
39930;SDS011;26635;-35.248;149.138;2023-05-27T06:59:58;0.35;;;0.20;;
39930;SDS011;26635;-35.248;149.138;2023-05-27T07:02:34;1.23;;;0.32;;
39930;SDS011;26635;-35.248;149.138;2023-05-27T07:05:05;1.10;;;0.20;;
39930;SDS011;26635;-35.248;149.138;2023-05-27T07:07:37;0.63;;;0.32;;
39930;SDS011;26635;-35.248;149.138;2023-05-27T07:10:08;0.75;;;0.30;;
39930;SDS011;26635;-35.248;149.138;2023-05-27T07:12:39;1.90;;;0.68;;
39930;SDS011;26635;-35.248;149.138;2023-05-27T07:15:10;3.13;;;0.30;;
39930;SDS011;26635;-35.248;149.138;2023-05-27T07:17:41;0.70;;;0.30;;
39930;SDS011;26635;-35.248;149.138;2023-05-27T07:20:12;0.77;;;0.30;;
39930;SDS011;26635;-35.248;149.138;2023-05-27T07:22:43;1.15;;;0.50;;
39930;SDS011;26635;-35.248;149.138;2023-05-27T07:25:14;0.80;;;0.40;;
39930;SDS011;26635;-35.248;149.138;2023-05-27T07:27:44;0.57;;;0.30;;
39930;SDS011;26635;-35.248;149.138;2023-05-27T07:30:15;0.55;;;0.30;;
39930;SDS011;26635;-35.248;149.138;2023-05-27T07:32:46;4.13;;;0.40;;
39930;SDS011;26635;-35.248;149.138;2023-05-27T07:35:19;1.20;;;0.43;;
39930;SDS011;26635;-35.248;149.138;2023-05-27T07:37:50;1.33;;;0.75;;
39930;SDS011;26635;-35.248;149.138;2023-05-27T07:40:21;1.23;;;0.60;;
39930;SDS011;26635;-35.248;149.138;2023-05-27T07:42:53;2.33;;;0.43;;
39930;SDS011;26635;-35.248;149.138;2023-05-27T07:45:24;1.42;;;0.52;;
39930;SDS011;26635;-35.248;149.138;2023-05-27T07:47:56;2.05;;;0.65;;
39930;SDS011;26635;-35.248;149.138;2023-05-27T07:50:27;0.98;;;0.38;;
39930;SDS011;26635;-35.248;149.138;2023-05-27T07:52:59;0.57;;;0.30;;
39930;SDS011;26635;-35.248;149.138;2023-05-27T07:55:31;0.95;;;0.28;;
39930;SDS011;26635;-35.248;149.138;2023-05-27T07:58:02;1.33;;;0.40;;
39930;SDS011;26635;-35.248;149.138;2023-05-27T08:00:34;0.85;;;0.30;;
39930;SDS011;26635;-35.248;149.138;2023-05-27T08:03:07;0.57;;;0.30;;
39930;SDS011;26635;-35.248;149.138;2023-05-27T08:05:39;0.60;;;0.28;;
39930;SDS011;26635;-35.248;149.138;2023-05-27T08:08:11;1.20;;;0.40;;
39930;SDS011;26635;-35.248;149.138;2023-05-27T08:10:43;0.63;;;0.30;;
39930;SDS011;26635;-35.248;149.138;2023-05-27T08:13:15;5.30;;;0.50;;
39930;SDS011;26635;-35.248;149.138;2023-05-27T08:15:48;1.75;;;0.57;;
39930;SDS011;26635;-35.248;149.138;2023-05-27T08:18:20;2.17;;;0.43;;
39930;SDS011;26635;-35.248;149.138;2023-05-27T08:20:53;1.85;;;0.50;;
39930;SDS011;26635;-35.248;149.138;2023-05-27T08:23:25;0.70;;;0.40;;
39930;SDS011;26635;-35.248;149.138;2023-05-27T08:25:57;6.15;;;2.88;;
39930;SDS011;26635;-35.248;149.138;2023-05-27T08:28:27;7.35;;;1.40;;
39930;SDS011;26635;-35.248;149.138;2023-05-27T08:30:59;1.85;;;0.50;;
39930;SDS011;26635;-35.248;149.138;2023-05-27T08:33:32;8.30;;;1.20;;
39930;SDS011;26635;-35.248;149.138;2023-05-27T08:36:03;1.35;;;0.50;;
39930;SDS011;26635;-35.248;149.138;2023-05-27T08:38:35;1.75;;;0.63;;
39930;SDS011;26635;-35.248;149.138;2023-05-27T08:41:07;2.50;;;0.82;;
39930;SDS011;26635;-35.248;149.138;2023-05-27T08:43:38;1.88;;;0.68;;
39930;SDS011;26635;-35.248;149.138;2023-05-27T08:46:11;2.65;;;0.77;;
39930;SDS011;26635;-35.248;149.138;2023-05-27T08:48:44;1.38;;;0.60;;
39930;SDS011;26635;-35.248;149.138;2023-05-27T08:51:17;3.30;;;1.00;;
39930;SDS011;26635;-35.248;149.138;2023-05-27T08:53:48;4.28;;;2.25;;
39930;SDS011;26635;-35.248;149.138;2023-05-27T08:56:25;5.97;;;2.45;;
39930;SDS011;26635;-35.248;149.138;2023-05-27T08:58:58;4.05;;;1.67;;
39930;SDS011;26635;-35.248;149.138;2023-05-27T09:01:30;4.57;;;1.20;;
39930;SDS011;26635;-35.248;149.138;2023-05-27T09:04:01;4.00;;;2.22;;
39930;SDS011;26635;-35.248;149.138;2023-05-27T09:06:34;5.63;;;1.85;;
39930;SDS011;26635;-35.248;149.138;2023-05-27T09:09:06;4.07;;;2.50;;
39930;SDS011;26635;-35.248;149.138;2023-05-27T09:11:42;6.40;;;3.03;;
39930;SDS011;26635;-35.248;149.138;2023-05-27T09:14:22;3.65;;;2.20;;
39930;SDS011;26635;-35.248;149.138;2023-05-27T09:17:04;4.35;;;2.42;;
39930;SDS011;26635;-35.248;149.138;2023-05-27T09:19:37;2.33;;;1.30;;
39930;SDS011;26635;-35.248;149.138;2023-05-27T09:22:09;3.60;;;1.33;;
39930;SDS011;26635;-35.248;149.138;2023-05-27T09:24:49;4.43;;;2.13;;
39930;SDS011;26635;-35.248;149.138;2023-05-27T09:27:27;3.70;;;1.58;;
39930;SDS011;26635;-35.248;149.138;2023-05-27T09:30:07;2.75;;;1.67;;
39930;SDS011;26635;-35.248;149.138;2023-05-27T09:32:40;4.72;;;2.78;;
39930;SDS011;26635;-35.248;149.138;2023-05-27T09:35:16;3.90;;;2.55;;
39930;SDS011;26635;-35.248;149.138;2023-05-27T09:37:48;4.32;;;2.30;;
39930;SDS011;26635;-35.248;149.138;2023-05-27T09:40:21;4.93;;;2.90;;
39930;SDS011;26635;-35.248;149.138;2023-05-27T09:42:54;6.25;;;3.30;;
39930;SDS011;26635;-35.248;149.138;2023-05-27T09:45:26;6.57;;;3.70;;
39930;SDS011;26635;-35.248;149.138;2023-05-27T09:47:59;7.03;;;4.30;;
39930;SDS011;26635;-35.248;149.138;2023-05-27T09:50:32;6.85;;;4.43;;
39930;SDS011;26635;-35.248;149.138;2023-05-27T09:53:06;8.65;;;4.10;;
39930;SDS011;26635;-35.248;149.138;2023-05-27T09:55:40;9.15;;;6.47;;
39930;SDS011;26635;-35.248;149.138;2023-05-27T09:58:13;9.03;;;6.17;;
39930;SDS011;26635;-35.248;149.138;2023-05-27T10:00:45;10.53;;;5.90;;
39930;SDS011;26635;-35.248;149.138;2023-05-27T10:03:20;10.27;;;6.50;;
39930;SDS011;26635;-35.248;149.138;2023-05-27T10:05:53;12.40;;;6.07;;
39930;SDS011;26635;-35.248;149.138;2023-05-27T10:08:26;10.03;;;7.03;;
39930;SDS011;26635;-35.248;149.138;2023-05-27T10:10:57;17.27;;;9.50;;
39930;SDS011;26635;-35.248;149.138;2023-05-27T10:13:32;15.27;;;8.53;;
39930;SDS011;26635;-35.248;149.138;2023-05-27T10:16:04;15.50;;;8.73;;
39930;SDS011;26635;-35.248;149.138;2023-05-27T10:18:41;15.30;;;7.70;;
39930;SDS011;26635;-35.248;149.138;2023-05-27T10:23:57;13.43;;;6.33;;
39930;SDS011;26635;-35.248;149.138;2023-05-27T10:26:38;11.13;;;5.67;;
39930;SDS011;26635;-35.248;149.138;2023-05-27T10:29:16;9.67;;;6.43;;
39930;SDS011;26635;-35.248;149.138;2023-05-27T10:31:50;11.57;;;5.87;;
39930;SDS011;26635;-35.248;149.138;2023-05-27T10:34:21;8.97;;;4.97;;
39930;SDS011;26635;-35.248;149.138;2023-05-27T10:37:09;12.63;;;6.20;;
39930;SDS011;26635;-35.248;149.138;2023-05-27T10:39:40;10.97;;;5.70;;
39930;SDS011;26635;-35.248;149.138;2023-05-27T10:42:22;8.00;;;4.67;;
39930;SDS011;26635;-35.248;149.138;2023-05-27T10:45:08;7.17;;;5.33;;
39930;SDS011;26635;-35.248;149.138;2023-05-27T10:47:46;9.13;;;4.93;;
39930;SDS011;26635;-35.248;149.138;2023-05-27T10:50:17;10.33;;;5.73;;
39930;SDS011;26635;-35.248;149.138;2023-05-27T10:52:47;7.17;;;4.47;;
39930;SDS011;26635;-35.248;149.138;2023-05-27T10:55:19;9.83;;;5.20;;
39930;SDS011;26635;-35.248;149.138;2023-05-27T10:57:50;9.47;;;5.43;;
39930;SDS011;26635;-35.248;149.138;2023-05-27T11:00:22;8.50;;;4.43;;
39930;SDS011;26635;-35.248;149.138;2023-05-27T11:02:57;7.03;;;4.13;;
39930;SDS011;26635;-35.248;149.138;2023-05-27T11:05:29;7.63;;;4.33;;
39930;SDS011;26635;-35.248;149.138;2023-05-27T11:08:01;9.73;;;4.13;;
39930;SDS011;26635;-35.248;149.138;2023-05-27T11:10:39;10.13;;;4.07;;
39930;SDS011;26635;-35.248;149.138;2023-05-27T11:13:10;6.37;;;3.60;;
39930;SDS011;26635;-35.248;149.138;2023-05-27T11:15:44;7.90;;;4.10;;
39930;SDS011;26635;-35.248;149.138;2023-05-27T11:18:15;6.30;;;3.73;;
39930;SDS011;26635;-35.248;149.138;2023-05-27T11:20:50;8.03;;;4.43;;
39930;SDS011;26635;-35.248;149.138;2023-05-27T11:23:22;10.13;;;4.97;;
39930;SDS011;26635;-35.248;149.138;2023-05-27T11:30:09;8.97;;;5.00;;
39930;SDS011;26635;-35.248;149.138;2023-05-27T11:32:45;10.03;;;4.80;;
39930;SDS011;26635;-35.248;149.138;2023-05-27T11:35:27;6.57;;;4.50;;
39930;SDS011;26635;-35.248;149.138;2023-05-27T11:38:15;9.60;;;5.87;;
39930;SDS011;26635;-35.248;149.138;2023-05-27T11:41:29;11.03;;;5.37;;
39930;SDS011;26635;-35.248;149.138;2023-05-27T11:44:25;8.50;;;4.73;;
39930;SDS011;26635;-35.248;149.138;2023-05-27T11:47:32;8.77;;;5.23;;
39930;SDS011;26635;-35.248;149.138;2023-05-27T11:50:24;11.13;;;5.07;;
39930;SDS011;26635;-35.248;149.138;2023-05-27T12:02:14;8.83;;;4.73;;
39930;SDS011;26635;-35.248;149.138;2023-05-27T12:13:59;10.50;;;4.30;;
39930;SDS011;26635;-35.248;149.138;2023-05-27T12:18:20;11.20;;;4.40;;
39930;SDS011;26635;-35.248;149.138;2023-05-27T12:33:44;13.17;;;6.30;;
39930;SDS011;26635;-35.248;149.138;2023-05-27T12:37:42;11.40;;;6.60;;
39930;SDS011;26635;-35.248;149.138;2023-05-27T12:40:53;14.37;;;7.93;;
39930;SDS011;26635;-35.248;149.138;2023-05-27T13:03:08;24.43;;;13.73;;
39930;SDS011;26635;-35.248;149.138;2023-05-27T13:12:35;36.00;;;17.00;;
39930;SDS011;26635;-35.248;149.138;2023-05-27T13:16:07;28.20;;;14.67;;
39930;SDS011;26635;-35.248;149.138;2023-05-27T13:25:00;22.53;;;12.70;;
39930;SDS011;26635;-35.248;149.138;2023-05-27T13:30:41;22.50;;;11.47;;
39930;SDS011;26635;-35.248;149.138;2023-05-27T13:34:13;19.83;;;10.00;;
39930;SDS011;26635;-35.248;149.138;2023-05-27T13:40:05;15.38;;;7.97;;
39930;SDS011;26635;-35.248;149.138;2023-05-27T13:43:11;14.05;;;8.30;;
39930;SDS011;26635;-35.248;149.138;2023-05-27T13:50:30;11.90;;;8.17;;
39930;SDS011;26635;-35.248;149.138;2023-05-27T14:09:01;13.50;;;7.53;;
39930;SDS011;26635;-35.248;149.138;2023-05-27T14:20:02;19.40;;;10.53;;
39930;SDS011;26635;-35.248;149.138;2023-05-27T14:22:53;17.90;;;8.97;;
39930;SDS011;26635;-35.248;149.138;2023-05-27T14:28:36;16.07;;;8.00;;
39930;SDS011;26635;-35.248;149.138;2023-05-27T14:31:30;13.90;;;7.17;;
39930;SDS011;26635;-35.248;149.138;2023-05-27T14:34:11;16.77;;;7.57;;
39930;SDS011;26635;-35.248;149.138;2023-05-27T14:36:50;13.90;;;6.87;;
39930;SDS011;26635;-35.248;149.138;2023-05-27T14:39:57;13.60;;;7.13;;
39930;SDS011;26635;-35.248;149.138;2023-05-27T14:43:14;18.60;;;8.17;;
39930;SDS011;26635;-35.248;149.138;2023-05-27T14:52:17;15.40;;;7.17;;
39930;SDS011;26635;-35.248;149.138;2023-05-27T14:55:32;10.33;;;6.23;;
39930;SDS011;26635;-35.248;149.138;2023-05-27T15:07:53;11.23;;;6.13;;
39930;SDS011;26635;-35.248;149.138;2023-05-27T15:57:17;8.73;;;4.80;;
39930;SDS011;26635;-35.248;149.138;2023-05-27T16:58:12;5.30;;;3.13;;
39930;SDS011;26635;-35.248;149.138;2023-05-27T17:08:08;6.47;;;3.03;;
39930;SDS011;26635;-35.248;149.138;2023-05-27T17:16:46;5.97;;;2.97;;
39930;SDS011;26635;-35.248;149.138;2023-05-27T17:53:57;6.37;;;2.80;;
39930;SDS011;26635;-35.248;149.138;2023-05-27T17:57:24;4.27;;;2.23;;
39930;SDS011;26635;-35.248;149.138;2023-05-27T18:00:32;5.55;;;2.05;;
39930;SDS011;26635;-35.248;149.138;2023-05-27T18:03:44;4.63;;;1.77;;
39930;SDS011;26635;-35.248;149.138;2023-05-27T18:07:41;5.97;;;2.77;;
39930;SDS011;26635;-35.248;149.138;2023-05-27T18:10:51;5.60;;;2.05;;
39930;SDS011;26635;-35.248;149.138;2023-05-27T18:14:00;5.10;;;2.93;;
39930;SDS011;26635;-35.248;149.138;2023-05-27T18:17:17;3.03;;;1.53;;
39930;SDS011;26635;-35.248;149.138;2023-05-27T18:20:18;4.00;;;2.20;;
39930;SDS011;26635;-35.248;149.138;2023-05-27T18:23:15;4.70;;;2.53;;
39930;SDS011;26635;-35.248;149.138;2023-05-27T18:26:20;6.33;;;2.53;;
39930;SDS011;26635;-35.248;149.138;2023-05-27T18:37:50;4.50;;;1.87;;
39930;SDS011;26635;-35.248;149.138;2023-05-27T18:43:28;5.27;;;2.00;;
39930;SDS011;26635;-35.248;149.138;2023-05-27T18:46:34;3.70;;;1.77;;
39930;SDS011;26635;-35.248;149.138;2023-05-27T19:00:37;4.40;;;1.60;;
39930;SDS011;26635;-35.248;149.138;2023-05-27T19:03:35;4.30;;;1.93;;
39930;SDS011;26635;-35.248;149.138;2023-05-27T19:06:30;2.60;;;1.53;;
39930;SDS011;26635;-35.248;149.138;2023-05-27T19:09:55;2.33;;;1.60;;
39930;SDS011;26635;-35.248;149.138;2023-05-27T19:13:29;4.50;;;1.73;;
39930;SDS011;26635;-35.248;149.138;2023-05-27T19:17:11;3.97;;;1.53;;
39930;SDS011;26635;-35.248;149.138;2023-05-27T19:20:45;5.83;;;1.93;;
39930;SDS011;26635;-35.248;149.138;2023-05-27T19:27:56;3.90;;;1.55;;
39930;SDS011;26635;-35.248;149.138;2023-05-27T19:31:25;4.87;;;1.50;;
39930;SDS011;26635;-35.248;149.138;2023-05-27T19:49:38;4.87;;;1.70;;
39930;SDS011;26635;-35.248;149.138;2023-05-27T20:01:52;8.90;;;4.03;;
39930;SDS011;26635;-35.248;149.138;2023-05-27T20:04:59;10.67;;;4.23;;
39930;SDS011;26635;-35.248;149.138;2023-05-27T20:07:49;9.10;;;4.47;;
39930;SDS011;26635;-35.248;149.138;2023-05-27T20:11:12;11.23;;;4.63;;
39930;SDS011;26635;-35.248;149.138;2023-05-27T20:14:29;10.73;;;4.63;;
39930;SDS011;26635;-35.248;149.138;2023-05-27T20:18:17;7.53;;;4.70;;
39930;SDS011;26635;-35.248;149.138;2023-05-27T20:21:44;9.03;;;3.97;;
39930;SDS011;26635;-35.248;149.138;2023-05-27T20:25:03;12.67;;;5.33;;
39930;SDS011;26635;-35.248;149.138;2023-05-27T20:34:46;9.90;;;5.17;;
39930;SDS011;26635;-35.248;149.138;2023-05-27T20:40:41;8.90;;;4.00;;
39930;SDS011;26635;-35.248;149.138;2023-05-27T20:43:30;8.13;;;3.63;;
39930;SDS011;26635;-35.248;149.138;2023-05-27T20:46:22;8.03;;;3.30;;
39930;SDS011;26635;-35.248;149.138;2023-05-27T20:49:08;6.53;;;3.10;;
39930;SDS011;26635;-35.248;149.138;2023-05-27T20:52:10;8.30;;;3.87;;
39930;SDS011;26635;-35.248;149.138;2023-05-27T20:54:50;8.13;;;3.60;;
39930;SDS011;26635;-35.248;149.138;2023-05-27T20:58:35;5.60;;;2.20;;